Time;durP1;ratioP1;P1;durP2;ratioP2;P2;SDS_P1;SDS_P2;PMS_P1;PMS_P2;Temp;Humidity;BMP_temperature;BMP_pressure;BME280_temperature;BME280_humidity;BME280_pressure;Samples;Min_cycle;Max_cycle;Signal;HPM_P1;HPM_P2
2021/11/09 00:00:33;;;;;;;;;;;;;;;21.24;55.86;102554.03;2092681;28;823;-67
2021/11/09 00:01:41;;;;;;;;;;;;;;;21.23;55.63;102549.53;2092702;28;897;-66
2021/11/09 00:02:43;;;;;;;;;;;;;;;21.25;56.02;102540.53;2092699;28;826;-66
2021/11/09 00:03:48;;;;;;;;;;;;;;;21.25;55.77;102545.03;2092669;28;827;-67
2021/11/09 00:04:52;;;;;;;;;;;;;;;21.22;56.18;102553.13;2092533;28;1151;-66
2021/11/09 00:05:57;;;;;;;;;;;;;;;21.20;55.69;102550.47;2092631;28;858;-67
2021/11/09 00:08:33;;;;;;;;;;;;;;;21.22;55.83;102547.75;2075080;28;1204;-66
2021/11/09 00:09:44;;;;;;;;;;;;;;;21.18;56.31;102541.50;2075289;28;960;-67
2021/11/09 00:10:45;;;;;;;;;;;;;;;21.17;56.46;102539.72;2075175;28;878;-66
2021/11/09 00:11:45;;;;;;;;;;;;;;;21.19;55.91;102543.28;2075271;28;831;-67
2021/11/09 00:12:50;;;;;;;;;;;;;;;21.18;56.16;102541.50;2066936;28;882;-66
2021/11/09 00:13:50;;;;;;;;;;;;;;;21.20;56.34;102538.81;2067537;28;1480;-66
2021/11/09 00:14:51;;;;;;;;;;;;;;;21.17;56.74;102537.94;2075178;28;1028;-67
2021/11/09 00:15:52;;;;;;;;;;;;;;;21.15;56.26;102547.84;2074679;28;1922;-66
2021/11/09 00:16:52;;;;;;;;;;;;;;;21.15;56.99;102547.84;2075132;28;1051;-66
2021/11/09 00:17:54;;;;;;;;;;;;;;;21.15;57.04;102539.75;2075172;28;985;-67
2021/11/09 00:18:54;;;;;;;;;;;;;;;21.16;56.27;102543.31;2075245;28;894;-67
2021/11/09 00:19:55;;;;;;;;;;;;;;;21.15;56.28;102545.13;2075210;28;896;-66
2021/11/09 00:20:55;;;;;;;;;;;;;;;21.13;56.36;102543.34;2074905;28;878;-67
2021/11/09 00:21:55;;;;;;;;;;;;;;;21.13;55.85;102544.25;2075085;28;830;-67
2021/11/09 00:22:56;;;;;;;;;;;;;;;21.14;56.69;102540.66;2075070;28;1040;-66
2021/11/09 00:24:00;;;;;;;;;;;;;;;21.13;56.15;102543.34;2075102;28;884;-67
2021/11/09 00:25:00;;;;;;;;;;;;;;;21.11;55.83;102543.38;2075076;28;814;-66
2021/11/09 00:26:00;;;;;;;;;;;;;;;21.10;56.88;102538.91;2075072;28;1115;-67
2021/11/09 00:27:01;;;;;;;;;;;;;;;21.08;56.84;102540.72;2075144;28;948;-67
2021/11/09 00:28:02;;;;;;;;;;;;;;;21.10;56.23;102544.28;2075141;28;870;-66
2021/11/09 00:29:02;;;;;;;;;;;;;;;21.08;56.14;102540.72;2074862;28;1321;-66
2021/11/09 00:30:03;;;;;;;;;;;;;;;21.06;56.81;102534.44;2075086;28;1033;-67
2021/11/09 00:31:03;;;;;;;;;;;;;;;21.08;56.76;102534.41;2075043;28;1057;-66
2021/11/09 00:32:05;;;;;;;;;;;;;;;21.06;56.43;102520.97;2074867;28;1147;-67
2021/11/09 00:33:05;;;;;;;;;;;;;;;21.08;56.37;102519.16;2075069;28;980;-66
2021/11/09 00:34:05;;;;;;;;;;;;;;;21.06;56.71;102523.66;2074977;28;998;-66
2021/11/09 00:35:06;;;;;;;;;;;;;;;21.06;56.46;102518.28;2075112;28;1462;-67
2021/11/09 00:36:06;;;;;;;;;;;;;;;21.06;56.76;102526.34;2074918;28;1902;-66
2021/11/09 00:37:06;;;;;;;;;;;;;;;21.07;56.24;102528.16;2075046;28;920;-66
2021/11/09 00:38:08;;;;;;;;;;;;;;;21.08;56.84;102527.25;2075102;28;1360;-67
2021/11/09 00:39:12;;;;;;;;;;;;;;;21.07;56.43;102535.31;2074862;28;869;-66
2021/11/09 00:40:13;;;;;;;;;;;;;;;21.06;56.39;102523.66;2074679;28;855;-66
2021/11/09 00:41:14;;;;;;;;;;;;;;;21.05;56.52;102538.03;2075047;28;942;-67
2021/11/09 00:42:14;;;;;;;;;;;;;;;21.06;56.46;102529.06;2074799;28;1335;-66
2021/11/09 00:43:16;;;;;;;;;;;;;;;21.05;56.54;102532.66;2074964;28;952;-66
2021/11/09 00:44:17;;;;;;;;;;;;;;;21.06;57.25;102538.91;2075017;28;879;-67
2021/11/09 00:45:17;;;;;;;;;;;;;;;21.05;57.24;102535.34;2078889;28;1093;-67
2021/11/09 00:46:17;;;;;;;;;;;;;;;21.05;56.42;102529.03;2092275;28;862;-66
2021/11/09 00:47:18;;;;;;;;;;;;;;;21.05;56.73;102531.75;2092216;28;803;-67
2021/11/09 00:48:18;;;;;;;;;;;;;;;21.06;56.08;102530.84;2092254;28;783;-66
2021/11/09 00:49:19;;;;;;;;;;;;;;;21.05;56.92;102529.03;2092254;28;809;-66
2021/11/09 00:50:20;;;;;;;;;;;;;;;21.05;56.44;102534.44;2092244;28;767;-67
2021/11/09 00:51:21;;;;;;;;;;;;;;;21.06;56.27;102531.75;2092258;28;1039;-65
2021/11/09 00:52:21;;;;;;;;;;;;;;;21.06;56.50;102529.06;2092257;28;819;-66
2021/11/09 00:53:22;;;;;;;;;;;;;;;21.02;56.91;102522.78;2092310;28;835;-67
2021/11/09 00:54:22;;;;;;;;;;;;;;;21.05;55.71;102523.66;2092253;28;790;-66
2021/11/09 00:55:23;;;;;;;;;;;;;;;21.05;56.26;102524.56;2092054;28;756;-66
2021/11/09 00:56:23;;;;;;;;;;;;;;;21.03;56.33;102519.19;2091707;28;1952;-67
2021/11/09 00:57:23;;;;;;;;;;;;;;;21.03;57.02;102515.59;2092172;28;863;-67
2021/11/09 00:58:23;;;;;;;;;;;;;;;21.01;56.16;102520.09;2092157;28;981;-66
2021/11/09 00:59:23;;;;;;;;;;;;;;;21.00;57.28;102515.63;2092136;28;776;-67
2021/11/09 01:00:26;;;;;;;;;;;;;;;21.01;57.08;102514.72;2091506;28;1466;-66
2021/11/09 01:01:26;;;;;;;;;;;;;;;21.02;56.19;102514.69;2091711;28;867;-67
2021/11/09 01:02:26;;;;;;;;;;;;;;;21.00;56.83;102513.81;2092199;28;756;-67
2021/11/09 01:03:26;;;;;;;;;;;;;;;20.99;56.77;102508.47;2092047;28;870;-67
2021/11/09 01:04:27;;;;;;;;;;;;;;;21.02;56.84;102508.44;2092113;28;973;-66
2021/11/09 01:05:28;;;;;;;;;;;;;;;20.97;57.58;102504.88;2092139;28;878;-67
2021/11/09 01:06:28;;;;;;;;;;;;;;;20.99;56.49;102501.25;2092138;28;771;-67
2021/11/09 01:07:28;;;;;;;;;;;;;;;20.99;56.59;102501.25;2092136;28;986;-66
2021/11/09 01:08:28;;;;;;;;;;;;;;;20.98;55.92;102499.47;2091224;28;966;-66
2021/11/09 01:09:28;;;;;;;;;;;;;;;20.97;57.10;102494.97;2091994;28;752;-67
2021/11/09 01:10:31;;;;;;;;;;;;;;;21.01;56.49;102499.44;2092099;28;880;-66
2021/11/09 01:11:31;;;;;;;;;;;;;;;20.99;56.48;102494.97;2092025;28;1271;-66
2021/11/09 01:12:32;;;;;;;;;;;;;;;20.99;56.55;102494.97;2092088;28;1004;-67
2021/11/09 01:13:33;;;;;;;;;;;;;;;20.96;57.84;102493.19;2091997;28;873;-66
2021/11/09 01:14:33;;;;;;;;;;;;;;;20.97;57.20;102491.41;2091961;28;816;-66
2021/11/09 01:15:34;;;;;;;;;;;;;;;20.97;57.21;102496.78;2092015;28;969;-66
2021/11/09 01:16:36;;;;;;;;;;;;;;;21.00;56.16;102494.06;2091970;28;1969;-66
2021/11/09 01:17:36;;;;;;;;;;;;;;;20.96;56.84;102492.31;2092092;28;1171;-66
2021/11/09 01:18:38;;;;;;;;;;;;;;;20.94;57.66;102491.44;2092058;28;814;-66
2021/11/09 01:19:38;;;;;;;;;;;;;;;20.95;57.04;102485.13;2091841;28;825;-66
2021/11/09 01:20:39;;;;;;;;;;;;;;;20.94;57.54;102483.34;2092039;28;858;-66
2021/11/09 01:21:42;;;;;;;;;;;;;;;20.95;57.80;102477.06;2092011;28;857;-66
2021/11/09 01:22:44;;;;;;;;;;;;;;;20.91;56.53;102480.69;2091976;28;803;-66
2021/11/09 01:23:46;;;;;;;;;;;;;;;20.91;57.35;102478.00;2091996;28;1235;-66
2021/11/09 01:24:46;;;;;;;;;;;;;;;20.91;56.81;102478.88;2091741;28;984;-67
2021/11/09 01:25:46;;;;;;;;;;;;;;;20.93;57.41;102477.06;2092014;28;770;-66
2021/11/09 01:26:47;;;;;;;;;;;;;;;20.91;57.38;102478.00;2091915;28;979;-66
2021/11/09 01:27:47;;;;;;;;;;;;;;;20.94;56.86;102476.16;2092012;28;819;-67
2021/11/09 01:28:49;;;;;;;;;;;;;;;20.91;57.00;102478.00;2091881;28;1953;-66
2021/11/09 01:29:49;;;;;;;;;;;;;;;20.92;56.75;102479.78;2091553;28;1039;-66
2021/11/09 01:30:49;;;;;;;;;;;;;;;20.91;56.91;102468.09;2091757;28;1059;-68
2021/11/09 01:31:52;;;;;;;;;;;;;;;20.91;57.27;102473.47;2091890;28;791;-67
2021/11/09 01:32:53;;;;;;;;;;;;;;;20.92;56.50;102474.38;2091941;28;924;-65
2021/11/09 01:33:54;;;;;;;;;;;;;;;20.88;57.23;102473.53;2091944;28;808;-65
2021/11/09 01:34:54;;;;;;;;;;;;;;;20.88;56.71;102484.31;2091804;28;1052;-66
2021/11/09 01:35:54;;;;;;;;;;;;;;;20.88;57.60;102477.09;2091613;28;1901;-65
2021/11/09 01:36:56;;;;;;;;;;;;;;;20.90;57.87;102478.91;2091875;28;799;-66
2021/11/09 01:37:56;;;;;;;;;;;;;;;20.90;57.24;102482.50;2094979;28;1208;-65
2021/11/09 01:38:57;;;;;;;;;;;;;;;20.88;57.43;102479.81;2100127;28;1048;-66
2021/11/09 01:39:57;;;;;;;;;;;;;;;20.90;56.94;102484.28;2100140;28;849;-67
2021/11/09 01:40:58;;;;;;;;;;;;;;;20.90;57.25;102486.97;2099888;28;1141;-66
2021/11/09 01:41:58;;;;;;;;;;;;;;;20.92;56.49;102487.84;2100148;28;948;-67
2021/11/09 01:42:59;;;;;;;;;;;;;;;20.90;57.53;102487.88;2100098;28;776;-67
2021/11/09 01:44:00;;;;;;;;;;;;;;;20.86;57.16;102481.63;2099973;28;1027;-66
2021/11/09 01:45:00;;;;;;;;;;;;;;;20.87;57.13;102483.41;2100067;28;783;-65
2021/11/09 01:46:01;;;;;;;;;;;;;;;20.87;57.40;102477.13;2100094;28;811;-64
2021/11/09 01:47:01;;;;;;;;;;;;;;;20.91;57.09;102478.00;2100003;28;1028;-64
2021/11/09 01:48:01;;;;;;;;;;;;;;;20.91;57.53;102475.28;2100013;28;855;-63
2021/11/09 01:49:01;;;;;;;;;;;;;;;20.90;56.99;102476.19;2099738;28;1432;-62
2021/11/09 01:50:03;;;;;;;;;;;;;;;20.90;56.58;102477.13;2100156;28;827;-61
2021/11/09 01:51:05;;;;;;;;;;;;;;;20.91;57.39;102480.69;2099863;28;1204;-60
2021/11/09 01:52:05;;;;;;;;;;;;;;;20.93;58.02;102473.47;2100085;28;968;-62
2021/11/09 01:53:06;;;;;;;;;;;;;;;20.93;57.19;102476.19;2100036;28;791;-63
2021/11/09 01:54:07;;;;;;;;;;;;;;;20.94;56.67;102472.56;2099944;28;834;-62
2021/11/09 01:55:09;;;;;;;;;;;;;;;20.93;57.85;102466.28;2100047;28;902;-65
2021/11/09 01:56:11;;;;;;;;;;;;;;;20.91;57.26;102470.78;2099935;28;1949;-66
2021/11/09 01:57:11;;;;;;;;;;;;;;;20.92;57.17;102469.00;2099789;28;1111;-65
2021/11/09 01:58:12;;;;;;;;;;;;;;;20.90;57.00;102466.34;2099979;28;962;-67
2021/11/09 01:59:12;;;;;;;;;;;;;;;20.92;57.42;102460.91;2099946;28;877;-66
2021/11/09 02:00:18;;;;;;;;;;;;;;;20.91;57.50;102465.41;2099945;28;989;-65
2021/11/09 02:01:19;;;;;;;;;;;;;;;20.88;57.40;102469.03;2100105;28;806;-67
2021/11/09 02:02:20;;;;;;;;;;;;;;;20.89;57.67;102464.56;2099640;28;762;-66
2021/11/09 02:03:21;;;;;;;;;;;;;;;20.94;56.83;102467.19;2099927;28;790;-66
2021/11/09 02:04:21;;;;;;;;;;;;;;;20.92;57.10;102469.00;2099938;28;849;-66
2021/11/09 02:05:21;;;;;;;;;;;;;;;20.90;57.64;102469.03;2099908;28;779;-66
2021/11/09 02:06:23;;;;;;;;;;;;;;;20.88;57.96;102460.06;2099932;28;877;-65
2021/11/09 02:07:23;;;;;;;;;;;;;;;20.90;57.35;102466.34;2099896;28;984;-67
2021/11/09 02:08:24;;;;;;;;;;;;;;;20.90;57.93;102465.44;2099793;28;862;-66
2021/11/09 02:09:25;;;;;;;;;;;;;;;20.90;57.88;102468.13;2099903;28;909;-65
2021/11/09 02:10:27;;;;;;;;;;;;;;;20.92;57.07;102458.22;2099833;28;779;-66
2021/11/09 02:11:27;;;;;;;;;;;;;;;20.92;57.27;102458.22;2099973;28;866;-65
2021/11/09 02:12:27;;;;;;;;;;;;;;;20.91;57.62;102461.81;2099944;28;896;-65
2021/11/09 02:13:28;;;;;;;;;;;;;;;20.91;57.42;102448.38;2099621;28;863;-66
2021/11/09 02:14:28;;;;;;;;;;;;;;;20.92;56.97;102450.16;2099845;28;973;-66
2021/11/09 02:15:30;;;;;;;;;;;;;;;20.92;57.23;102450.16;2099880;28;1064;-65
2021/11/09 02:16:31;;;;;;;;;;;;;;;20.90;56.72;102450.19;2099769;28;1914;-67
2021/11/09 02:17:31;;;;;;;;;;;;;;;20.86;57.20;102457.38;2099869;28;877;-65
2021/11/09 02:18:32;;;;;;;;;;;;;;;20.88;57.29;102452.88;2099876;28;717;-65
2021/11/09 02:19:32;;;;;;;;;;;;;;;20.89;57.22;102453.78;2099250;28;929;-66
2021/11/09 02:20:33;;;;;;;;;;;;;;;20.88;57.20;102458.25;2099846;28;1048;-65
2021/11/09 02:21:33;;;;;;;;;;;;;;;20.90;57.38;102454.66;2099777;28;1572;-65
2021/11/09 02:22:34;;;;;;;;;;;;;;;20.90;56.94;102447.47;2099869;28;1031;-65
2021/11/09 02:23:35;;;;;;;;;;;;;;;20.90;57.16;102449.28;2099768;28;919;-66
2021/11/09 02:24:35;;;;;;;;;;;;;;;20.91;56.74;102448.38;2099173;28;961;-66
2021/11/09 02:25:36;;;;;;;;;;;;;;;20.93;57.30;102451.94;2099263;28;815;-67
2021/11/09 02:26:36;;;;;;;;;;;;;;;20.93;56.95;102451.94;2099839;28;763;-65
2021/11/09 02:27:37;;;;;;;;;;;;;;;20.94;57.33;102451.91;2099896;28;893;-65
2021/11/09 02:28:37;;;;;;;;;;;;;;;20.92;56.80;102451.03;2099839;28;1233;-65
2021/11/09 02:29:37;;;;;;;;;;;;;;;20.94;57.19;102441.13;2099818;28;1055;-65
2021/11/09 02:30:38;;;;;;;;;;;;;;;20.92;56.36;102458.22;2099805;28;815;-65
2021/11/09 02:31:38;;;;;;;;;;;;;;;20.92;56.70;102436.69;2099683;28;1048;-66
2021/11/09 02:32:38;;;;;;;;;;;;;;;20.92;56.16;102436.69;2099764;28;839;-66
2021/11/09 02:33:38;;;;;;;;;;;;;;;20.92;56.42;102442.06;2099789;28;858;-65
2021/11/09 02:34:39;;;;;;;;;;;;;;;20.92;56.37;102444.75;2099677;28;977;-66
2021/11/09 02:35:39;;;;;;;;;;;;;;;20.92;56.88;102439.38;2099732;28;1087;-66
2021/11/09 02:36:39;;;;;;;;;;;;;;;20.87;57.54;102439.44;2099676;28;1890;-66
2021/11/09 02:37:40;;;;;;;;;;;;;;;20.88;56.46;102436.72;2098916;28;1471;-65
2021/11/09 02:38:40;;;;;;;;;;;;;;;20.91;56.91;102434.91;2091470;28;819;-66
2021/11/09 02:39:41;;;;;;;;;;;;;;;20.89;57.00;102432.22;2091460;28;863;-65
2021/11/09 02:40:41;;;;;;;;;;;;;;;20.92;56.50;102432.16;2091428;28;1036;-65
2021/11/09 02:41:41;;;;;;;;;;;;;;;20.92;55.82;102431.28;2091401;28;1035;-67
2021/11/09 02:42:43;;;;;;;;;;;;;;;20.90;56.77;102433.09;2091373;28;791;-66
2021/11/09 02:43:43;;;;;;;;;;;;;;;20.88;56.99;102430.44;2091549;28;1159;-65
2021/11/09 02:44:57;;;;;;;;;;;;;;;20.88;57.19;102427.75;2091433;28;862;-67
2021/11/09 02:47:20;;;;;;;;;;;;;;;20.88;57.22;102422.38;2091549;28;935;-66
2021/11/09 02:48:27;;;;;;;;;;;;;;;20.88;57.46;102422.38;2091457;28;822;-64
2021/11/09 02:49:42;;;;;;;;;;;;;;;20.87;57.45;102423.28;2091378;28;883;-66
2021/11/09 02:50:48;;;;;;;;;;;;;;;20.87;57.14;102420.56;2091304;28;1134;-66
2021/11/09 02:51:53;;;;;;;;;;;;;;;20.88;57.40;102419.66;2091509;28;877;-66
2021/11/09 02:53:01;;;;;;;;;;;;;;;20.90;57.05;102425.03;2091399;28;803;-65
2021/11/09 02:54:07;;;;;;;;;;;;;;;20.90;57.22;102430.41;2091567;28;862;-67
2021/11/09 02:55:11;;;;;;;;;;;;;;;20.87;56.88;102424.16;2091413;28;906;-66
2021/11/09 02:57:21;;;;;;;;;;;;;;;20.88;57.11;102422.38;2091231;28;1284;-67
2021/11/09 03:02:15;;;;;;;;;;;;;;;20.84;57.33;102416.09;2082248;28;1297;-65
2021/11/09 03:03:25;;;;;;;;;;;;;;;20.87;56.84;102420.56;2082312;28;997;-68
2021/11/09 03:08:05;;;;;;;;;;;;;;;20.90;56.62;102414.25;2065876;28;1188;-66
2021/11/09 03:09:21;;;;;;;;;;;;;;;20.88;57.03;102415.16;2065941;28;925;-66
2021/11/09 03:11:22;;;;;;;;;;;;;;;20.88;56.68;102425.06;2065883;28;1193;-59
2021/11/09 03:12:22;;;;;;;;;;;;;;;20.88;56.92;102423.25;2065906;28;987;-59
2021/11/09 03:13:23;;;;;;;;;;;;;;;20.88;57.14;102430.44;2065975;28;925;-59
2021/11/09 03:14:25;;;;;;;;;;;;;;;20.87;57.14;102428.66;2065653;28;894;-59
2021/11/09 03:15:28;;;;;;;;;;;;;;;20.86;56.68;102421.47;2065775;28;803;-59
2021/11/09 03:16:32;;;;;;;;;;;;;;;20.88;57.17;102438.53;2065873;28;1988;-59
2021/11/09 03:17:43;;;;;;;;;;;;;;;20.86;57.10;102430.44;2065687;28;924;-58
2021/11/09 03:18:52;;;;;;;;;;;;;;;20.86;57.47;102422.34;2065913;28;1117;-59
2021/11/09 03:19:58;;;;;;;;;;;;;;;20.86;57.00;102427.75;2065936;28;814;-58
2021/11/09 03:39:58;;;;;;;;;;;;;;;20.86;57.03;102430.44;2065886;28;1004;-59
2021/11/09 03:40:51;;;;;;;;;;;;;;;20.87;57.01;102431.34;2075028;28;756;-59
2021/11/09 03:45:40;;;;;;;;;;;;;;;20.84;56.41;102431.38;2092855;28;854;-59
2021/11/09 03:46:42;;;;;;;;;;;;;;;20.86;56.93;102429.56;2092759;28;794;-59
2021/11/09 03:47:45;;;;;;;;;;;;;;;20.82;57.57;102423.28;2092747;28;857;-59
2021/11/09 03:48:45;;;;;;;;;;;;;;;20.84;57.19;102424.16;2092556;28;857;-59
2021/11/09 03:49:47;;;;;;;;;;;;;;;20.85;56.65;102425.97;2092742;28;1020;-59
2021/11/09 03:50:47;;;;;;;;;;;;;;;20.85;57.27;102420.56;2092725;28;798;-59
2021/11/09 03:51:48;;;;;;;;;;;;;;;20.85;57.42;102427.78;2092609;28;827;-58
2021/11/09 03:54:01;;;;;;;;;;;;;;;20.84;57.09;102417.91;2092541;28;724;-59
2021/11/09 03:55:03;;;;;;;;;;;;;;;20.84;57.65;102417.91;2092524;28;845;-59
2021/11/09 03:56:14;;;;;;;;;;;;;;;20.86;57.55;102419.66;2092627;28;2031;-58
2021/11/09 03:57:28;;;;;;;;;;;;;;;20.84;57.16;102420.59;2092562;28;1252;-59
2021/11/09 03:58:41;;;;;;;;;;;;;;;20.84;57.43;102418.78;2092695;28;838;-58
2021/11/09 04:00:51;;;;;;;;;;;;;;;20.84;57.25;102418.78;2092760;28;957;-58
2021/11/09 04:03:00;;;;;;;;;;;;;;;20.81;57.27;102401.78;2092552;28;843;-58
2021/11/09 04:05:07;;;;;;;;;;;;;;;20.82;57.48;102407.13;2092490;28;1010;-58
2021/11/09 04:07:46;;;;;;;;;;;;;;;20.79;56.92;102401.78;2092675;28;775;-59
2021/11/09 04:11:22;;;;;;;;;;;;;;;20.82;57.62;102403.56;2092455;28;834;-59
2021/11/09 04:12:33;;;;;;;;;;;;;;;20.81;57.00;102389.19;2092585;28;898;-59
2021/11/09 04:13:42;;;;;;;;;;;;;;;20.83;57.45;102379.28;2092431;28;881;-58
2021/11/09 04:14:59;;;;;;;;;;;;;;;20.84;56.77;102383.78;2092595;28;877;-59
2021/11/09 04:18:59;;;;;;;;;;;;;;;20.83;55.98;102392.75;2075096;28;1221;-59
2021/11/09 04:20:08;;;;;;;;;;;;;;;20.82;57.07;102396.34;2075315;28;882;-60
2021/11/09 04:21:16;;;;;;;;;;;;;;;20.82;57.67;102387.41;2075177;28;956;-58
2021/11/09 04:24:59;;;;;;;;;;;;;;;20.82;57.27;102379.31;2075035;28;733;-58
2021/11/09 04:29:25;;;;;;;;;;;;;;;20.81;56.24;102364.94;2075136;28;831;-59
2021/11/09 04:33:17;;;;;;;;;;;;;;;20.82;56.67;102364.03;2075021;28;831;-59
2021/11/09 04:34:58;;;;;;;;;;;;;;;20.81;56.66;102351.47;2074901;28;1665;-58
2021/11/09 05:02:52;;;;;;;;;;;;;;;20.79;56.57;102356.00;2092325;28;784;-59
2021/11/09 05:09:36;;;;;;;;;;;;;;;22.11;52.61;102348.88;2074885;28;893;-59
2021/11/09 05:10:37;;;;;;;;;;;;;;;22.23;52.88;102357.72;2074737;28;1245;-58
2021/11/09 05:11:38;;;;;;;;;;;;;;;22.31;52.53;102355.78;2074716;28;973;-58
2021/11/09 05:12:38;;;;;;;;;;;;;;;22.39;52.39;102361.03;2074773;28;783;-58
2021/11/09 05:13:38;;;;;;;;;;;;;;;22.43;52.43;102354.66;2074263;28;1166;-59
2021/11/09 05:14:39;;;;;;;;;;;;;;;22.45;52.13;102360.97;2074730;28;867;-58
2021/11/09 05:15:39;;;;;;;;;;;;;;;22.52;52.26;102349.13;2074706;28;933;-59
2021/11/09 05:16:39;;;;;;;;;;;;;;;22.56;51.42;102347.28;2074207;28;1914;-58
2021/11/09 05:17:39;;;;;;;;;;;;;;;22.61;52.01;102346.28;2074702;28;811;-59
2021/11/09 05:18:39;;;;;;;;;;;;;;;22.65;51.17;102347.13;2074751;28;926;-59
2021/11/09 05:19:40;;;;;;;;;;;;;;;22.68;51.54;102349.75;2074486;28;788;-59
2021/11/09 05:20:40;;;;;;;;;;;;;;;22.72;51.45;102345.19;2074633;28;1062;-59
2021/11/09 05:21:41;;;;;;;;;;;;;;;22.71;51.37;102349.69;2074736;28;787;-58
2021/11/09 05:22:41;;;;;;;;;;;;;;;22.73;50.91;102345.16;2074559;28;914;-58
2021/11/09 05:23:42;;;;;;;;;;;;;;;22.83;51.02;102343.19;2074617;28;969;-56
2021/11/09 05:24:43;;;;;;;;;;;;;;;22.84;50.90;102342.25;2074600;28;869;-58
2021/11/09 05:25:43;;;;;;;;;;;;;;;22.84;50.71;102350.38;2074655;28;944;-58
2021/11/09 05:26:44;;;;;;;;;;;;;;;22.85;51.28;102337.72;2074637;28;1005;-59
2021/11/09 05:27:46;;;;;;;;;;;;;;;22.85;51.59;102341.34;2074672;28;890;-59
2021/11/09 05:28:46;;;;;;;;;;;;;;;22.88;51.60;102346.69;2074686;28;777;-60
2021/11/09 05:29:47;;;;;;;;;;;;;;;22.91;51.86;102349.31;2074611;28;875;-59
2021/11/09 05:30:50;;;;;;;;;;;;;;;22.90;51.07;102347.53;2074372;28;873;-58
2021/11/09 05:31:56;;;;;;;;;;;;;;;22.93;51.16;102335.78;2074691;28;1229;-59
2021/11/09 05:32:59;;;;;;;;;;;;;;;22.94;50.93;102334.84;2074592;28;988;-59
2021/11/09 05:34:00;;;;;;;;;;;;;;;22.93;51.47;102333.97;2074613;28;799;-60
2021/11/09 05:35:01;;;;;;;;;;;;;;;22.94;51.43;102330.34;2074569;28;866;-59
2021/11/09 05:36:03;;;;;;;;;;;;;;;22.94;52.15;102338.47;2074091;28;1894;-59
2021/11/09 05:37:06;;;;;;;;;;;;;;;22.98;51.18;102333.88;2074555;28;854;-59
2021/11/09 05:38:08;;;;;;;;;;;;;;;23.03;51.89;102333.75;2070140;28;1246;-59
2021/11/09 05:40:15;;;;;;;;;;;;;;;23.05;51.38;102331.91;2100201;28;822;-59
2021/11/09 05:41:17;;;;;;;;;;;;;;;23.07;50.81;102327.38;2100040;28;974;-58
2021/11/09 05:42:17;;;;;;;;;;;;;;;23.09;51.24;102325.53;2100114;28;873;-59
2021/11/09 05:43:18;;;;;;;;;;;;;;;23.01;51.47;102324.78;2100023;28;757;-59
2021/11/09 05:44:18;;;;;;;;;;;;;;;23.03;51.30;102320.25;2100001;28;774;-59
2021/11/09 05:45:18;;;;;;;;;;;;;;;23.07;50.18;102324.66;2100105;28;1032;-59
2021/11/09 05:46:19;;;;;;;;;;;;;;;23.05;51.19;102318.41;2099927;28;867;-59
2021/11/09 05:47:19;;;;;;;;;;;;;;;23.08;52.30;102321.03;2099310;28;858;-59
2021/11/09 05:48:19;;;;;;;;;;;;;;;23.11;50.91;102318.28;2099547;28;834;-58
2021/11/09 05:49:19;;;;;;;;;;;;;;;23.16;50.71;102316.38;2100072;28;969;-59
2021/11/09 05:50:20;;;;;;;;;;;;;;;23.13;51.56;102318.25;2100003;28;1334;-59
2021/11/09 05:51:20;;;;;;;;;;;;;;;23.13;50.90;102320.97;2100010;28;798;-59
2021/11/09 05:52:21;;;;;;;;;;;;;;;23.13;50.64;102321.84;2100002;28;786;-59
2021/11/09 05:53:21;;;;;;;;;;;;;;;23.16;50.72;102310.09;2100051;28;858;-58
2021/11/09 05:54:21;;;;;;;;;;;;;;;23.17;50.55;102310.03;2099765;28;782;-59
2021/11/09 05:55:22;;;;;;;;;;;;;;;23.18;51.16;102302.84;2099807;28;1024;-59
2021/11/09 05:56:22;;;;;;;;;;;;;;;23.20;50.93;102301.88;2099744;28;1969;-59
2021/11/09 05:57:22;;;;;;;;;;;;;;;23.23;50.72;102309.94;2100019;28;893;-58
2021/11/09 05:58:22;;;;;;;;;;;;;;;23.23;51.44;102304.53;2099875;28;850;-59
2021/11/09 05:59:22;;;;;;;;;;;;;;;23.24;50.28;102308.16;2099716;28;1216;-58
2021/11/09 06:00:23;;;;;;;;;;;;;;;23.18;50.56;102303.72;2099894;28;925;-58
2021/11/09 06:01:23;;;;;;;;;;;;;;;23.20;51.46;102301.88;2099949;28;953;-58
2021/11/09 06:02:23;;;;;;;;;;;;;;;23.27;50.44;102297.25;2099986;28;965;-59
2021/11/09 06:03:23;;;;;;;;;;;;;;;23.21;50.64;102292.84;2099947;28;821;-59
2021/11/09 06:04:25;;;;;;;;;;;;;;;23.25;50.94;102296.41;2099925;28;791;-58
2021/11/09 06:05:26;;;;;;;;;;;;;;;23.24;50.30;102290.09;2099678;28;822;-58
2021/11/09 06:06:26;;;;;;;;;;;;;;;23.28;50.94;102282.81;2099880;28;802;-58
2021/11/09 06:07:26;;;;;;;;;;;;;;;23.24;50.98;102286.53;2099986;28;839;-59
2021/11/09 06:08:27;;;;;;;;;;;;;;;23.21;50.16;102292.84;2099923;28;787;-58
2021/11/09 06:09:27;;;;;;;;;;;;;;;23.30;50.17;102286.34;2099994;28;855;-59
2021/11/09 06:10:27;;;;;;;;;;;;;;;23.34;50.08;102279.09;2099909;28;858;-59
2021/11/09 06:11:28;;;;;;;;;;;;;;;23.32;50.91;102280.94;2099892;28;854;-58
2021/11/09 06:12:28;;;;;;;;;;;;;;;23.35;49.46;102279.03;2099754;28;786;-59
2021/11/09 06:13:28;;;;;;;;;;;;;;;23.34;50.51;102281.78;2099813;28;1118;-58
2021/11/09 06:14:28;;;;;;;;;;;;;;;23.32;51.46;102286.34;2099911;28;1044;-59
2021/11/09 06:15:28;;;;;;;;;;;;;;;23.30;50.43;102286.34;2099648;28;851;-58
2021/11/09 06:16:29;;;;;;;;;;;;;;;23.39;49.66;102285.28;2099726;28;1918;-59
2021/11/09 06:17:29;;;;;;;;;;;;;;;23.32;50.25;102289.03;2099891;28;1077;-58
2021/11/09 06:18:29;;;;;;;;;;;;;;;23.30;50.44;102280.09;2099713;28;910;-58
2021/11/09 06:19:29;;;;;;;;;;;;;;;23.34;50.35;102289.91;2099872;28;985;-59
2021/11/09 06:20:29;;;;;;;;;;;;;;;23.37;50.27;102289.84;2099906;28;874;-59
2021/11/09 06:21:29;;;;;;;;;;;;;;;23.36;51.00;102278.13;2099802;28;784;-58
2021/11/09 06:22:31;;;;;;;;;;;;;;;23.34;51.02;102284.50;2099834;28;1063;-58
2021/11/09 06:23:31;;;;;;;;;;;;;;;23.34;50.08;102279.09;2099683;28;881;-59
2021/11/09 06:24:31;;;;;;;;;;;;;;;23.33;50.78;102277.31;2099586;28;973;-58
2021/11/09 06:25:32;;;;;;;;;;;;;;;23.37;50.62;102270.91;2099754;28;985;-59
2021/11/09 06:26:32;;;;;;;;;;;;;;;23.37;51.25;102281.72;2099800;28;889;-58
2021/11/09 06:27:33;;;;;;;;;;;;;;;23.34;50.08;102273.69;2099831;28;1146;-58
2021/11/09 06:28:33;;;;;;;;;;;;;;;23.34;50.52;102273.69;2099789;28;882;-58
2021/11/09 06:29:34;;;;;;;;;;;;;;;23.33;50.65;102270.06;2099688;28;831;-59
2021/11/09 06:30:35;;;;;;;;;;;;;;;23.38;49.92;102278.97;2099861;28;981;-58
2021/11/09 06:31:35;;;;;;;;;;;;;;;23.36;50.50;102271.84;2099715;28;1044;-58
2021/11/09 06:32:35;;;;;;;;;;;;;;;23.30;50.32;102269.28;2099783;28;814;-59
2021/11/09 06:33:36;;;;;;;;;;;;;;;23.29;49.82;102281.00;2099752;28;969;-58
2021/11/09 06:34:36;;;;;;;;;;;;;;;23.26;50.98;102267.56;2099684;28;850;-58
2021/11/09 06:35:37;;;;;;;;;;;;;;;23.33;50.18;102269.19;2099778;28;790;-58
2021/11/09 06:36:37;;;;;;;;;;;;;;;23.38;51.10;102269.97;2099729;28;1894;-58
2021/11/09 06:37:37;;;;;;;;;;;;;;;23.32;51.36;102267.41;2099236;28;1473;-58
2021/11/09 06:38:37;;;;;;;;;;;;;;;23.33;50.54;102263.78;2091407;28;973;-58
2021/11/09 06:39:38;;;;;;;;;;;;;;;23.33;50.13;102263.78;2091274;28;784;-58
2021/11/09 06:40:38;;;;;;;;;;;;;;;23.34;50.97;102257.47;2091440;28;1032;-58
2021/11/09 06:41:38;;;;;;;;;;;;;;;23.32;51.07;102256.59;2091477;28;1009;-58
2021/11/09 06:42:38;;;;;;;;;;;;;;;23.31;51.16;102254.81;2091376;28;1139;-58
2021/11/09 06:43:38;;;;;;;;;;;;;;;23.31;51.61;102255.69;2091379;28;1048;-58
2021/11/09 06:44:39;;;;;;;;;;;;;;;23.32;50.09;102262.88;2091386;28;779;-58
2021/11/09 06:45:39;;;;;;;;;;;;;;;23.34;50.30;102257.47;2091406;28;1102;-59
2021/11/09 06:46:39;;;;;;;;;;;;;;;23.31;51.08;102249.41;2091411;28;875;-59
2021/11/09 06:47:41;;;;;;;;;;;;;;;23.30;50.58;102253.03;2091398;28;735;-58
2021/11/09 06:48:43;;;;;;;;;;;;;;;23.31;50.02;102255.69;2091447;28;847;-59
2021/11/09 06:49:43;;;;;;;;;;;;;;;23.35;49.85;102251.13;2091446;28;791;-58
2021/11/09 06:50:43;;;;;;;;;;;;;;;23.42;49.80;102252.75;2091144;28;1079;-58
2021/11/09 06:51:43;;;;;;;;;;;;;;;23.38;50.39;102254.63;2091383;28;798;-58
2021/11/09 06:52:43;;;;;;;;;;;;;;;23.34;50.91;102254.75;2091354;28;905;-59